Time;durP1;ratioP1;P1;durP2;ratioP2;P2;SDS_P1;SDS_P2;PMS_P1;PMS_P2;Temp;Humidity;BMP_temperature;BMP_pressure;BME280_temperature;BME280_humidity;BME280_pressure;Samples;Min_cycle;Max_cycle;Signal;HPM_P1;HPM_P2
2024/01/10 00:01:59;;;;;;;4.07;2.30;;;-2.60;59.40;;;;;;5012736;28;20022;-79
2024/01/10 00:04:24;;;;;;;3.35;2.50;;;-2.60;59.50;;;;;;5013871;28;20400;-79
2024/01/10 00:06:50;;;;;;;2.90;2.17;;;-2.60;59.60;;;;;;5014025;28;20107;-78
2024/01/10 00:09:15;;;;;;;2.60;2.20;;;-2.60;59.60;;;;;;5013599;28;20033;-79
2024/01/10 00:11:41;;;;;;;3.28;2.25;;;-2.60;59.60;;;;;;5010379;28;20034;-79
2024/01/10 00:14:07;;;;;;;2.83;2.20;;;-2.60;59.70;;;;;;5013379;28;20018;-78
2024/01/10 00:16:32;;;;;;;2.55;2.15;;;-2.60;59.80;;;;;;5013957;28;20354;-78
2024/01/10 00:18:58;;;;;;;3.83;2.40;;;-2.60;59.90;;;;;;5010863;28;20105;-80
2024/01/10 00:21:23;;;;;;;3.47;2.40;;;-2.70;60.00;;;;;;5012475;28;20018;-78
2024/01/10 00:23:49;;;;;;;3.72;2.47;;;-2.70;59.90;;;;;;5012405;28;20030;-80
2024/01/10 00:26:15;;;;;;;3.67;2.70;;;-2.70;60.00;;;;;;5010745;28;20032;-79
2024/01/10 00:28:41;;;;;;;4.00;2.70;;;-2.70;60.20;;;;;;5009568;28;20022;-78
2024/01/10 00:31:06;;;;;;;4.53;2.78;;;-2.70;60.20;;;;;;5010349;28;20528;-79
2024/01/10 00:33:32;;;;;;;3.35;2.50;;;-2.70;60.40;;;;;;5006336;28;20050;-77
2024/01/10 00:35:57;;;;;;;4.25;2.70;;;-2.70;60.50;;;;;;5010024;28;20026;-79
2024/01/10 00:38:23;;;;;;;2.65;2.30;;;-2.80;60.60;;;;;;5009666;28;20076;-79
2024/01/10 00:40:48;;;;;;;4.38;2.65;;;-2.80;60.80;;;;;;5010988;28;20022;-77
2024/01/10 00:43:14;;;;;;;3.20;2.17;;;-2.80;61.00;;;;;;5010294;28;20061;-79
2024/01/10 00:45:40;;;;;;;3.58;2.50;;;-2.90;61.10;;;;;;5006691;28;20034;-77
2024/01/10 00:48:05;;;;;;;4.93;2.80;;;-2.90;61.30;;;;;;5008894;28;20026;-78
2024/01/10 00:50:31;;;;;;;4.95;2.92;;;-2.90;61.50;;;;;;5002994;28;20535;-76
2024/01/10 00:52:56;;;;;;;5.20;3.00;;;-3.00;61.60;;;;;;5009593;28;20565;-77
2024/01/10 00:55:22;;;;;;;3.40;2.53;;;-3.00;61.80;;;;;;5008377;28;20032;-77
2024/01/10 00:57:47;;;;;;;4.22;2.75;;;-3.00;61.80;;;;;;5008929;28;20022;-78
2024/01/10 01:00:14;;;;;;;3.90;2.58;;;-3.00;61.90;;;;;;5010227;28;20069;-79
2024/01/10 01:02:39;;;;;;;4.43;2.97;;;-3.00;61.90;;;;;;5005866;28;20034;-79
2024/01/10 01:05:07;;;;;;;3.08;2.42;;;-3.00;62.10;;;;;;5008584;28;20014;-79
2024/01/10 01:07:32;;;;;;;4.53;2.90;;;-3.00;62.20;;;;;;5008449;28;20025;-77
2024/01/10 01:09:58;;;;;;;3.90;2.50;;;-3.00;62.30;;;;;;5007673;28;20017;-78
2024/01/10 01:12:23;;;;;;;4.30;2.60;;;-3.00;62.40;;;;;;5015697;28;20640;-77
2024/01/10 01:14:49;;;;;;;4.85;2.50;;;-3.00;62.50;;;;;;5007950;28;20053;-78
2024/01/10 01:17:15;;;;;;;3.63;2.45;;;-3.10;62.70;;;;;;5009744;28;20021;-78
2024/01/10 01:19:40;;;;;;;4.55;2.80;;;-3.10;62.70;;;;;;5010092;28;20034;-79
2024/01/10 01:22:06;;;;;;;3.50;2.35;;;-3.10;62.70;;;;;;5009778;28;20018;-77
2024/01/10 01:24:31;;;;;;;4.22;2.42;;;-3.10;62.70;;;;;;5009232;28;20105;-78
2024/01/10 01:26:57;;;;;;;4.25;2.70;;;-3.10;62.80;;;;;;5008914;28;20014;-78
2024/01/10 01:29:22;;;;;;;3.45;2.30;;;-3.10;62.80;;;;;;5010068;28;20141;-79
2024/01/10 01:31:48;;;;;;;4.07;2.65;;;-3.00;62.90;;;;;;5009994;28;20114;-78
2024/01/10 01:34:13;;;;;;;2.88;2.25;;;-3.00;62.80;;;;;;5009303;28;20389;-79
2024/01/10 01:36:39;;;;;;;3.35;2.50;;;-3.00;62.80;;;;;;5008160;28;20508;-77
2024/01/10 01:39:05;;;;;;;4.00;2.65;;;-3.00;62.90;;;;;;5009318;28;20032;-79
2024/01/10 01:41:31;;;;;;;3.50;2.40;;;-3.00;62.90;;;;;;5009803;28;20504;-79
2024/01/10 01:43:56;;;;;;;3.03;2.25;;;-3.00;62.90;;;;;;5009089;28;20037;-77
2024/01/10 01:46:23;;;;;;;2.95;2.33;;;-3.00;63.00;;;;;;5010056;28;20026;-77
2024/01/10 01:48:49;;;;;;;3.30;2.35;;;-3.00;63.10;;;;;;5008330;28;20032;-80
2024/01/10 01:51:17;;;;;;;3.72;2.38;;;-3.00;63.10;;;;;;5011219;28;20026;-78
2024/01/10 01:53:44;;;;;;;2.45;2.20;;;-3.00;63.20;;;;;;5009457;28;20030;-81
2024/01/10 01:56:12;;;;;;;4.97;2.58;;;-3.00;63.20;;;;;;5009010;28;20076;-79
2024/01/10 01:58:38;;;;;;;4.15;2.70;;;-3.10;63.30;;;;;;5008479;28;20021;-77
2024/01/10 02:01:07;;;;;;;5.63;3.10;;;-3.10;63.50;;;;;;4998008;28;20113;-79
2024/01/10 02:03:33;;;;;;;3.50;2.65;;;-3.10;63.70;;;;;;5027077;28;20050;-79
2024/01/10 02:06:03;;;;;;;6.28;3.45;;;-3.20;63.70;;;;;;5008073;28;20025;-78
2024/01/10 02:08:32;;;;;;;5.05;2.80;;;-3.30;63.90;;;;;;5010173;28;20095;-78
2024/01/10 02:10:59;;;;;;;3.78;2.72;;;-3.20;64.00;;;;;;5009836;28;20017;-79
2024/01/10 02:13:24;;;;;;;4.05;2.75;;;-3.20;63.90;;;;;;5008625;28;20026;-79
2024/01/10 02:15:51;;;;;;;4.20;2.60;;;-3.20;63.90;;;;;;5007537;28;20033;-79
2024/01/10 02:18:16;;;;;;;4.25;2.60;;;-3.20;63.90;;;;;;5007468;28;20392;-78
2024/01/10 02:20:45;;;;;;;3.10;2.30;;;-3.10;63.80;;;;;;5002414;28;20018;-78
2024/01/10 02:23:11;;;;;;;3.65;2.63;;;-3.10;63.80;;;;;;5008563;28;20053;-80
2024/01/10 02:25:37;;;;;;;3.88;2.53;;;-3.20;63.80;;;;;;5009807;28;20104;-77
2024/01/10 02:28:03;;;;;;;5.63;2.70;;;-3.20;64.00;;;;;;5008481;28;20029;-80
2024/01/10 02:30:29;;;;;;;3.17;2.38;;;-3.20;64.00;;;;;;5010523;28;20030;-78
2024/01/10 02:32:54;;;;;;;3.63;2.50;;;-3.20;64.00;;;;;;5009415;28;20494;-79
2024/01/10 02:35:20;;;;;;;5.95;2.72;;;-3.20;64.00;;;;;;5006246;28;20485;-81
2024/01/10 02:37:46;;;;;;;3.80;2.38;;;-3.20;64.00;;;;;;5007157;28;20026;-79
2024/01/10 02:40:11;;;;;;;3.30;2.70;;;-3.20;64.10;;;;;;5010597;28;20018;-79
2024/01/10 02:42:37;;;;;;;4.30;2.78;;;-3.20;64.30;;;;;;5009115;28;20091;-77
2024/01/10 02:45:04;;;;;;;4.05;2.90;;;-3.30;64.40;;;;;;5008294;28;20599;-79
2024/01/10 02:47:29;;;;;;;3.85;2.47;;;-3.40;64.60;;;;;;5003609;28;20404;-77
2024/01/10 02:49:55;;;;;;;3.25;2.30;;;-3.40;64.70;;;;;;5012065;28;20090;-77
2024/01/10 02:52:20;;;;;;;4.18;2.65;;;-3.40;64.80;;;;;;5008608;28;20121;-78
2024/01/10 02:54:46;;;;;;;3.53;2.60;;;-3.40;64.80;;;;;;5009443;28;20105;-79
2024/01/10 02:57:12;;;;;;;4.43;2.83;;;-3.40;64.80;;;;;;5009767;28;20020;-78
2024/01/10 02:59:38;;;;;;;3.63;2.50;;;-3.40;65.00;;;;;;5009103;28;20323;-79
2024/01/10 03:02:03;;;;;;;5.38;3.00;;;-3.40;65.10;;;;;;5008485;28;20034;-80
2024/01/10 03:04:29;;;;;;;3.90;2.50;;;-3.40;65.00;;;;;;5010911;28;20022;-78
2024/01/10 03:06:54;;;;;;;4.30;3.05;;;-3.40;65.10;;;;;;5001786;28;20029;-80
2024/01/10 03:09:20;;;;;;;5.63;2.92;;;-3.50;65.10;;;;;;5014848;28;20026;-77
2024/01/10 03:11:45;;;;;;;4.45;2.97;;;-3.40;65.20;;;;;;5014456;28;20030;-80
2024/01/10 03:14:11;;;;;;;5.75;3.05;;;-3.50;65.20;;;;;;5013192;28;20297;-77
2024/01/10 03:16:37;;;;;;;5.05;2.80;;;-3.40;65.30;;;;;;5013720;28;20064;-78
2024/01/10 03:19:03;;;;;;;5.07;2.90;;;-3.50;65.50;;;;;;5014238;28;20093;-80
2024/01/10 03:21:29;;;;;;;3.80;2.78;;;-3.50;65.50;;;;;;5014449;28;20082;-79
2024/01/10 03:23:59;;;;;;;4.75;3.10;;;-3.60;65.60;;;;;;5013256;28;20060;-80
2024/01/10 03:26:26;;;;;;;4.65;3.03;;;-3.60;65.70;;;;;;5009174;28;20030;-81
2024/01/10 03:28:51;;;;;;;3.97;2.78;;;-3.50;65.70;;;;;;5004782;28;20027;-79
2024/01/10 03:31:17;;;;;;;3.08;2.50;;;-3.50;65.70;;;;;;5013416;28;20084;-78
2024/01/10 03:33:43;;;;;;;4.45;2.53;;;-3.50;65.80;;;;;;5010044;28;20036;-78
2024/01/10 03:36:12;;;;;;;3.90;2.60;;;-3.50;65.70;;;;;;5014847;28;20108;-79
2024/01/10 03:38:37;;;;;;;4.07;2.60;;;-3.50;65.80;;;;;;5012608;28;20026;-78
2024/01/10 03:41:03;;;;;;;3.97;2.90;;;-3.50;65.60;;;;;;5011796;28;20034;-79
2024/01/10 03:43:29;;;;;;;3.42;2.67;;;-3.50;65.80;;;;;;5013300;28;20034;-80
2024/01/10 03:45:54;;;;;;;3.42;2.60;;;-3.60;65.80;;;;;;5012474;28;20026;-77
2024/01/10 03:48:20;;;;;;;5.65;3.42;;;-3.60;66.40;;;;;;5012729;28;20393;-78
2024/01/10 03:50:46;;;;;;;4.85;3.13;;;-3.60;66.20;;;;;;5009018;28;20052;-79
2024/01/10 03:53:11;;;;;;;5.07;2.90;;;-3.70;66.30;;;;;;5015707;28;20026;-79
2024/01/10 03:55:37;;;;;;;5.40;2.83;;;-3.60;66.50;;;;;;5008476;28;20037;-79
2024/01/10 03:58:03;;;;;;;4.05;2.63;;;-3.60;66.40;;;;;;5011518;28;20107;-79
2024/01/10 04:00:28;;;;;;;4.30;2.65;;;-3.60;66.40;;;;;;5011951;28;20049;-80
2024/01/10 04:02:54;;;;;;;3.47;2.35;;;-3.60;66.40;;;;;;5012169;28;20038;-80
2024/01/10 04:05:20;;;;;;;3.22;2.47;;;-3.60;66.50;;;;;;5012729;28;20022;-78
2024/01/10 04:07:46;;;;;;;3.90;2.50;;;-3.60;67.10;;;;;;5010969;28;20576;-80
2024/01/10 04:10:14;;;;;;;3.83;2.58;;;-3.70;66.60;;;;;;5012585;28;20097;-77
2024/01/10 04:12:43;;;;;;;3.60;2.70;;;-3.70;66.70;;;;;;5008588;28;20032;-79
2024/01/10 04:15:09;;;;;;;4.45;2.70;;;-3.70;66.80;;;;;;5009344;28;20045;-79
2024/01/10 04:17:35;;;;;;;4.18;2.80;;;-3.70;66.70;;;;;;5013598;28;20419;-80
2024/01/10 04:20:01;;;;;;;3.80;2.67;;;-3.70;66.80;;;;;;5010824;28;20030;-80
2024/01/10 04:22:26;;;;;;;3.67;2.47;;;-3.70;66.80;;;;;;5011648;28;20055;-75
2024/01/10 04:24:52;;;;;;;4.85;2.92;;;-3.70;66.90;;;;;;5011211;28;20557;-80
2024/01/10 04:27:18;;;;;;;4.07;2.88;;;-3.70;67.00;;;;;;5010018;28;20485;-77
2024/01/10 04:29:44;;;;;;;5.03;2.80;;;-3.80;67.10;;;;;;5011035;28;20034;-81
2024/01/10 04:32:09;;;;;;;3.63;2.50;;;-3.80;67.10;;;;;;5009188;28;20121;-79
2024/01/10 04:34:35;;;;;;;3.40;2.25;;;-3.80;67.00;;;;;;5006186;28;20117;-79
2024/01/10 04:37:01;;;;;;;5.45;2.92;;;-3.80;67.10;;;;;;5010402;28;20018;-79
2024/01/10 04:39:26;;;;;;;5.18;2.83;;;-3.80;67.30;;;;;;5010987;28;20018;-78
2024/01/10 04:41:52;;;;;;;5.53;2.90;;;-3.80;67.30;;;;;;5006712;28;20022;-81
2024/01/10 04:44:17;;;;;;;5.68;3.03;;;-3.80;67.30;;;;;;5010500;28;20041;-75
2024/01/10 04:46:43;;;;;;;3.88;2.83;;;-3.80;67.30;;;;;;5011479;28;20370;-79
2024/01/10 04:49:08;;;;;;;3.90;2.83;;;-3.80;67.30;;;;;;5010700;28;20026;-77
2024/01/10 04:51:34;;;;;;;4.72;2.63;;;-3.80;67.30;;;;;;5012452;28;20044;-78
2024/01/10 04:54:00;;;;;;;4.07;2.80;;;-3.80;67.40;;;;;;5005991;28;20069;-79
2024/01/10 04:56:26;;;;;;;3.97;2.70;;;-3.80;67.40;;;;;;5005205;28;20024;-76
2024/01/10 04:58:51;;;;;;;5.88;3.13;;;-3.80;67.40;;;;;;5008681;28;20616;-79
2024/01/10 05:01:17;;;;;;;4.40;3.05;;;-3.90;67.70;;;;;;5006399;28;20023;-77
2024/01/10 05:03:43;;;;;;;5.20;3.10;;;-3.90;67.70;;;;;;4998932;28;20032;-80
2024/01/10 05:06:08;;;;;;;5.00;3.13;;;-3.90;67.80;;;;;;4991639;28;20036;-77
2024/01/10 05:08:34;;;;;;;4.22;2.40;;;-3.90;67.80;;;;;;5006632;28;20659;-78
2024/01/10 05:11:00;;;;;;;4.55;3.17;;;-3.90;67.70;;;;;;5005887;28;20029;-80
2024/01/10 05:13:25;;;;;;;6.35;3.33;;;-3.90;68.20;;;;;;5008156;28;20142;-79
2024/01/10 05:15:51;;;;;;;4.93;3.25;;;-3.90;68.30;;;;;;4999735;28;20018;-80
2024/01/10 05:18:18;;;;;;;6.00;3.63;;;-3.90;68.30;;;;;;5001425;28;20014;-77
2024/01/10 05:20:44;;;;;;;5.70;3.55;;;-3.90;68.40;;;;;;5009184;28;20153;-81
2024/01/10 05:23:09;;;;;;;5.30;3.03;;;-4.00;68.60;;;;;;4998536;28;20510;-76
2024/01/10 05:25:35;;;;;;;6.00;3.05;;;-3.90;68.60;;;;;;5006688;28;20084;-77
2024/01/10 05:28:01;;;;;;;4.60;3.00;;;-3.90;68.60;;;;;;5008708;28;20037;-77
2024/01/10 05:30:27;;;;;;;4.72;2.80;;;-3.90;68.40;;;;;;5011557;28;20029;-80
2024/01/10 05:32:52;;;;;;;4.20;2.72;;;-3.80;68.50;;;;;;5009044;28;20062;-76
2024/01/10 05:35:18;;;;;;;5.53;2.90;;;-3.90;68.40;;;;;;5009720;28;20064;-76
2024/01/10 05:37:43;;;;;;;6.38;2.90;;;-3.80;68.40;;;;;;5008940;28;20037;-79
2024/01/10 05:40:09;;;;;;;5.22;2.95;;;-3.80;68.40;;;;;;5008507;28;20018;-76
2024/01/10 05:42:35;;;;;;;6.32;2.92;;;-3.90;68.40;;;;;;5008553;28;20036;-79
2024/01/10 05:45:02;;;;;;;5.68;3.15;;;-3.90;68.40;;;;;;5008524;28;20022;-76
2024/01/10 05:47:27;;;;;;;6.60;3.60;;;-3.90;68.60;;;;;;5002832;28;20497;-80
2024/01/10 05:49:53;;;;;;;4.63;3.05;;;-4.00;68.80;;;;;;4999622;28;20033;-75
2024/01/10 05:52:20;;;;;;;5.78;3.40;;;-4.00;68.90;;;;;;5007110;28;20498;-80
2024/01/10 05:54:45;;;;;;;6.78;3.75;;;-4.00;69.00;;;;;;5005229;28;20100;-78
2024/01/10 05:57:11;;;;;;;6.20;3.67;;;-4.00;69.20;;;;;;5007387;28;20517;-77
2024/01/10 05:59:36;;;;;;;5.90;3.17;;;-4.00;69.30;;;;;;5008820;28;20030;-75
2024/01/10 06:02:03;;;;;;;5.82;3.30;;;-4.00;69.30;;;;;;5006974;28;20022;-78
2024/01/10 06:04:31;;;;;;;5.65;3.50;;;-4.00;69.20;;;;;;5007698;28;20508;-78
2024/01/10 06:07:01;;;;;;;4.72;2.97;;;-4.00;69.10;;;;;;5003897;28;20401;-78
2024/01/10 06:09:27;;;;;;;5.65;3.22;;;-3.90;69.10;;;;;;5010496;28;20049;-78
2024/01/10 06:11:53;;;;;;;6.15;3.70;;;-3.90;69.10;;;;;;5003856;28;20030;-76
2024/01/10 06:14:18;;;;;;;6.00;3.65;;;-4.00;69.10;;;;;;5014272;28;20033;-77
2024/01/10 06:16:44;;;;;;;5.88;3.47;;;-4.00;69.10;;;;;;5008140;28;20033;-80
2024/01/10 06:19:11;;;;;;;6.03;3.70;;;-4.00;69.10;;;;;;5001862;28;20045;-80
2024/01/10 06:21:37;;;;;;;4.88;3.22;;;-4.00;69.10;;;;;;5005776;28;20076;-78
2024/01/10 06:24:02;;;;;;;5.28;3.25;;;-4.00;69.10;;;;;;5007603;28;20104;-79
2024/01/10 06:26:28;;;;;;;5.30;3.22;;;-3.90;69.10;;;;;;5007973;28;20053;-80
2024/01/10 06:28:54;;;;;;;4.93;3.35;;;-3.90;68.90;;;;;;5006484;28;20113;-76
2024/01/10 06:31:20;;;;;;;5.38;3.13;;;-3.90;68.90;;;;;;5005793;28;20104;-80
2024/01/10 06:33:45;;;;;;;5.15;3.15;;;-3.90;68.90;;;;;;5009244;28;20482;-79
2024/01/10 06:36:11;;;;;;;4.55;2.90;;;-3.90;68.90;;;;;;5000946;28;20049;-80
2024/01/10 06:38:38;;;;;;;5.53;3.40;;;-3.90;68.80;;;;;;5009121;28;20022;-79
2024/01/10 06:41:08;;;;;;;6.18;3.03;;;-3.90;68.80;;;;;;5007671;28;20057;-79
2024/01/10 06:43:34;;;;;;;5.15;3.22;;;-3.90;68.80;;;;;;4970852;28;1053127;-79
2024/01/10 06:46:00;;;;;;;4.88;3.08;;;-3.90;68.70;;;;;;5007877;28;20472;-79
2024/01/10 06:48:25;;;;;;;3.88;2.70;;;-3.90;68.70;;;;;;5009015;28;20528;-79
2024/01/10 06:50:51;;;;;;;5.45;3.13;;;-3.90;68.70;;;;;;5008794;28;20120;-77
2024/01/10 06:53:16;;;;;;;7.18;3.63;;;-3.90;68.70;;;;;;5002605;28;20022;-80
2024/01/10 06:55:42;;;;;;;6.15;3.25;;;-3.90;68.70;;;;;;5009449;28;20490;-80
2024/01/10 06:58:08;;;;;;;5.50;3.33;;;-3.80;68.70;;;;;;5006615;28;20026;-76
2024/01/10 07:00:33;;;;;;;5.30;3.72;;;-3.90;68.70;;;;;;5006307;28;20309;-77
2024/01/10 07:03:02;;;;;;;7.50;3.40;;;-4.00;68.70;;;;;;5006060;28;20077;-78
2024/01/10 07:05:28;;;;;;;7.70;3.90;;;-3.90;68.90;;;;;;5004927;28;20014;-78
2024/01/10 07:07:53;;;;;;;6.40;3.45;;;-4.00;68.70;;;;;;5007212;28;20105;-79
2024/01/10 07:10:19;;;;;;;4.90;3.20;;;-4.00;68.80;;;;;;5003917;28;20045;-77
2024/01/10 07:12:45;;;;;;;6.65;3.72;;;-3.90;68.80;;;;;;5011421;28;20041;-80
2024/01/10 07:15:11;;;;;;;7.05;3.50;;;-4.00;68.70;;;;;;5007443;28;20037;-79
2024/01/10 07:17:37;;;;;;;5.57;3.22;;;-4.00;68.70;;;;;;5004353;28;20031;-78
2024/01/10 07:20:03;;;;;;;5.45;3.33;;;-4.00;68.70;;;;;;5005336;28;20515;-78
2024/01/10 07:22:28;;;;;;;5.18;3.30;;;-3.90;68.70;;;;;;5007125;28;20018;-78
2024/01/10 07:24:54;;;;;;;4.20;2.88;;;-3.90;68.60;;;;;;5006108;28;20060;-80
2024/01/10 07:27:19;;;;;;;5.05;2.80;;;-3.90;68.60;;;;;;5007054;28;20022;-77
2024/01/10 07:29:46;;;;;;;4.53;3.15;;;-3.90;69.10;;;;;;5001686;28;20054;-78
2024/01/10 07:32:11;;;;;;;5.05;3.15;;;-3.90;68.50;;;;;;5006380;28;20041;-78
2024/01/10 07:34:40;;;;;;;4.95;3.30;;;-3.90;68.50;;;;;;5006234;28;20492;-76
2024/01/10 07:37:05;;;;;;;8.70;4.25;;;-3.90;68.40;;;;;;5005925;28;20376;-79
2024/01/10 07:39:31;;;;;;;5.55;3.60;;;-3.90;68.40;;;;;;5004126;28;20112;-78
2024/01/10 07:41:57;;;;;;;7.53;4.03;;;-3.90;68.40;;;;;;5003799;28;20044;-77
2024/01/10 07:44:24;;;;;;;5.53;3.20;;;-3.90;68.50;;;;;;5007655;28;20026;-79
2024/01/10 07:46:53;;;;;;;5.63;3.08;;;-3.90;68.50;;;;;;5010234;28;20597;-77
2024/01/10 07:49:21;;;;;;;6.78;3.60;;;-3.90;68.50;;;;;;5010632;28;20481;-76
2024/01/10 07:51:47;;;;;;;5.53;3.15;;;-3.90;68.50;;;;;;4999825;28;20058;-78
2024/01/10 07:54:13;;;;;;;6.97;3.53;;;-3.90;68.40;;;;;;5009321;28;20045;-80
2024/01/10 07:56:39;;;;;;;6.28;3.65;;;-3.90;68.40;;;;;;5013292;28;20048;-79
2024/01/10 07:59:05;;;;;;;5.47;3.00;;;-3.90;68.40;;;;;;5011714;28;20029;-76
2024/01/10 08:01:30;;;;;;;7.55;4.22;;;-3.80;68.40;;;;;;5009693;28;20018;-81
2024/01/10 08:03:56;;;;;;;8.27;4.35;;;-3.90;68.00;;;;;;5021979;28;20033;-78
2024/01/10 08:06:22;;;;;;;5.82;3.33;;;-3.80;68.20;;;;;;5017171;28;20075;-80
2024/01/10 08:08:47;;;;;;;7.03;3.90;;;-3.80;68.20;;;;;;5015175;28;20030;-79
2024/01/10 08:11:13;;;;;;;7.93;4.00;;;-3.80;68.00;;;;;;5014997;28;20029;-79
2024/01/10 08:13:38;;;;;;;5.40;3.38;;;-3.80;68.20;;;;;;5011165;28;20054;-81
2024/01/10 08:16:04;;;;;;;4.63;3.05;;;-3.70;68.10;;;;;;5012582;28;20516;-77
2024/01/10 08:18:30;;;;;;;5.90;3.70;;;-3.60;68.10;;;;;;5013784;28;20025;-80
2024/01/10 08:20:55;;;;;;;7.32;3.85;;;-3.60;67.50;;;;;;5013100;28;20022;-77
2024/01/10 08:23:21;;;;;;;6.32;3.47;;;-3.60;67.60;;;;;;5011844;28;20021;-78
2024/01/10 08:25:46;;;;;;;5.35;3.03;;;-3.60;67.70;;;;;;5012800;28;20026;-79
2024/01/10 08:28:13;;;;;;;7.72;4.13;;;-3.50;67.70;;;;;;5010099;28;20037;-80
2024/01/10 08:30:39;;;;;;;5.90;4.00;;;-3.50;67.00;;;;;;5012181;28;20109;-81
2024/01/10 08:33:04;;;;;;;7.78;4.30;;;-3.50;67.30;;;;;;5010960;28;20569;-78
2024/01/10 08:35:30;;;;;;;7.10;4.15;;;-3.40;67.30;;;;;;5011117;28;20049;-79
2024/01/10 08:37:55;;;;;;;7.63;4.13;;;-3.40;67.10;;;;;;5010637;28;20025;-76
2024/01/10 08:40:25;;;;;;;6.93;3.78;;;-3.40;67.10;;;;;;5011185;28;20018;-83
2024/01/10 08:42:51;;;;;;;7.22;4.10;;;-3.30;67.00;;;;;;5015377;28;20026;-79
2024/01/10 08:45:17;;;;;;;7.25;2.97;;;-3.30;67.00;;;;;;5011962;28;20018;-77
2024/01/10 08:47:43;;;;;;;5.55;3.22;;;-3.20;67.00;;;;;;5010311;28;20091;-78
2024/01/10 08:50:10;;;;;;;9.00;4.78;;;-3.20;66.70;;;;;;5024941;28;20022;-79
2024/01/10 08:52:38;;;;;;;6.90;3.90;;;-3.20;66.20;;;;;;5009645;28;20038;-78
2024/01/10 08:55:06;;;;;;;8.30;5.00;;;-3.10;66.50;;;;;;5010442;28;20034;-76
2024/01/10 08:57:31;;;;;;;6.82;4.35;;;-3.10;66.00;;;;;;5011093;28;20022;-77
2024/01/10 08:59:57;;;;;;;7.03;4.28;;;-3.10;66.30;;;;;;5011013;28;20018;-76
2024/01/10 09:02:23;;;;;;;8.00;4.20;;;-3.00;66.00;;;;;;5011350;28;20022;-78
2024/01/10 09:04:50;;;;;;;6.97;3.72;;;-3.00;65.90;;;;;;5012107;28;20097;-76
2024/01/10 09:07:17;;;;;;;11.43;5.40;;;-2.90;65.80;;;;;;5007871;28;20026;-80
2024/01/10 09:09:43;;;;;;;10.27;5.50;;;-2.90;65.10;;;;;;5021604;28;20026;-80
2024/01/10 09:12:09;;;;;;;10.95;5.53;;;-3.00;64.90;;;;;;5011988;28;20366;-76
2024/01/10 09:14:34;;;;;;;9.07;4.72;;;-2.90;64.90;;;;;;5009862;28;20445;-76
2024/01/10 09:17:02;;;;;;;7.57;4.28;;;-2.90;65.20;;;;;;5008858;28;20037;-79
2024/01/10 09:19:29;;;;;;;7.28;4.78;;;-2.80;65.40;;;;;;5008972;28;20108;-79
2024/01/10 09:21:55;;;;;;;9.20;4.60;;;-2.80;64.90;;;;;;5007960;28;20025;-77
2024/01/10 09:24:21;;;;;;;11.85;6.28;;;-2.70;64.50;;;;;;5006336;28;20026;-78
2024/01/10 09:26:47;;;;;;;11.40;6.18;;;-2.80;63.40;;;;;;5007408;28;20076;-78
2024/01/10 09:29:12;;;;;;;10.32;6.00;;;-2.80;63.90;;;;;;5009178;28;20029;-78
2024/01/10 09:31:38;;;;;;;12.30;5.82;;;-2.80;64.00;;;;;;5011541;28;20025;-77
2024/01/10 09:34:03;;;;;;;9.45;5.32;;;-2.80;63.80;;;;;;5010712;28;20041;-77
2024/01/10 09:36:29;;;;;;;8.40;4.60;;;-2.70;64.30;;;;;;5008588;28;20432;-79
2024/01/10 09:38:54;;;;;;;11.02;5.20;;;-2.60;63.90;;;;;;5008824;28;20097;-77
2024/01/10 09:41:20;;;;;;;9.07;4.97;;;-2.60;63.50;;;;;;5008352;28;20489;-80
2024/01/10 09:43:46;;;;;;;10.43;5.65;;;-2.50;63.70;;;;;;5009550;28;20026;-78
2024/01/10 09:46:12;;;;;;;9.63;5.05;;;-2.40;63.10;;;;;;5006374;28;20425;-78
2024/01/10 09:48:38;;;;;;;10.90;4.63;;;-2.40;62.60;;;;;;5009381;28;20056;-77
2024/01/10 09:51:03;;;;;;;8.07;4.82;;;-2.30;63.00;;;;;;5009791;28;20038;-77
2024/01/10 09:53:35;;;;;;;8.10;4.30;;;-2.20;63.00;;;;;;5009202;28;20030;-79
2024/01/10 09:56:04;;;;;;;10.38;4.97;;;-2.20;62.70;;;;;;5004514;28;20041;-76
2024/01/10 09:58:31;;;;;;;10.20;5.05;;;-2.10;62.10;;;;;;5009294;28;20517;-76
2024/01/10 10:00:57;;;;;;;8.27;4.05;;;-2.00;62.30;;;;;;5006893;28;20520;-78
2024/01/10 10:03:23;;;;;;;7.20;4.00;;;-1.90;62.20;;;;;;5008799;28;20061;-78
2024/01/10 10:05:49;;;;;;;6.72;3.83;;;-1.80;62.20;;;;;;5009129;28;20022;-79
2024/01/10 10:08:15;;;;;;;7.97;3.80;;;-1.70;62.30;;;;;;5006985;28;20033;-77
2024/01/10 10:10:45;;;;;;;9.75;4.40;;;-1.60;62.20;;;;;;5007525;28;20036;-79
2024/01/10 10:13:23;;;;;;;10.55;6.28;;;-1.60;61.50;;;;;;5004517;28;20653;-79
2024/01/10 10:16:03;;;;;;;12.95;6.03;;;-1.50;60.30;;;;;;5004312;28;20021;-77
2024/01/10 10:18:31;;;;;;;12.30;5.97;;;-1.50;60.00;;;;;;5005434;28;20501;-79
2024/01/10 10:21:11;;;;;;;11.90;6.20;;;-1.50;59.20;;;;;;5007587;28;20489;-78
2024/01/10 10:23:41;;;;;;;12.45;5.57;;;-1.40;58.50;;;;;;5005787;28;20497;-76
2024/01/10 10:26:19;;;;;;;9.80;5.30;;;-1.40;57.80;;;;;;5010583;28;20029;-76
2024/01/10 10:28:45;;;;;;;10.02;4.80;;;-1.40;58.80;;;;;;5008095;28;20083;-76
2024/01/10 10:31:11;;;;;;;7.15;4.18;;;-1.20;59.20;;;;;;5006164;28;20029;-78
2024/01/10 10:33:37;;;;;;;8.18;4.75;;;-1.20;59.00;;;;;;5007048;28;20014;-80
2024/01/10 10:36:03;;;;;;;9.43;5.20;;;-1.20;58.80;;;;;;5009351;28;20029;-80
2024/01/10 10:38:29;;;;;;;11.88;5.68;;;-1.10;58.30;;;;;;5010349;28;20018;-78
2024/01/10 10:40:55;;;;;;;12.82;6.00;;;-1.00;57.70;;;;;;5009397;28;20325;-80
2024/01/10 10:43:22;;;;;;;10.18;5.50;;;-1.00;57.10;;;;;;5008428;28;20038;-77
2024/01/10 10:45:49;;;;;;;9.88;5.15;;;-0.90;57.00;;;;;;4999809;28;20465;-76
2024/01/10 10:48:20;;;;;;;7.22;4.25;;;-0.90;56.90;;;;;;5010453;28;20069;-77
2024/01/10 10:51:06;;;;;;;10.63;5.50;;;-0.80;57.10;;;;;;5005964;28;20138;-77
2024/01/10 10:53:37;;;;;;;12.73;6.05;;;-0.80;56.00;;;;;;5006893;28;20116;-79
2024/01/10 10:56:07;;;;;;;10.95;5.80;;;-0.70;55.70;;;;;;5010543;28;20057;-78
2024/01/10 10:58:36;;;;;;;9.73;5.57;;;-0.70;55.20;;;;;;5008362;28;20018;-77
2024/01/10 11:01:06;;;;;;;9.73;5.03;;;-0.60;55.20;;;;;;5008396;28;20029;-78
2024/01/10 11:03:41;;;;;;;9.52;5.10;;;-0.60;55.40;;;;;;5008770;28;20479;-80
2024/01/10 11:06:07;;;;;;;9.13;4.80;;;-0.50;55.50;;;;;;5008950;28;20113;-77
2024/01/10 11:08:45;;;;;;;11.35;5.78;;;-0.50;55.00;;;;;;5008319;28;20168;-79
2024/01/10 11:11:32;;;;;;;10.05;4.80;;;-0.50;54.10;;;;;;5009876;28;20030;-79
2024/01/10 11:14:27;;;;;;;10.48;5.45;;;-0.40;54.70;;;;;;5004799;28;20034;-79
2024/01/10 11:17:22;;;;;;;9.00;5.50;;;-0.40;54.20;;;;;;5003547;28;20106;-80
2024/01/10 11:20:13;;;;;;;10.45;5.93;;;-0.30;54.80;;;;;;5004228;28;20049;-80
2024/01/10 11:22:57;;;;;;;9.60;5.00;;;-0.30;54.30;;;;;;5008687;28;20073;-79
2024/01/10 11:25:23;;;;;;;10.02;4.80;;;-0.20;55.40;;;;;;5008153;28;20079;-79
2024/01/10 11:27:52;;;;;;;10.02;5.22;;;-0.10;54.50;;;;;;5009224;28;20041;-79
2024/01/10 11:30:41;;;;;;;8.68;4.65;;;-0.10;54.40;;;;;;5010786;28;20422;-80
2024/01/10 11:33:24;;;;;;;11.10;5.22;;;0.00;54.80;;;;;;5008990;28;20025;-79
2024/01/10 11:36:12;;;;;;;10.13;4.72;;;0.00;54.70;;;;;;5013712;28;20022;-78
2024/01/10 11:38:56;;;;;;;8.10;4.07;;;0.10;55.10;;;;;;5010320;28;20116;-78
2024/01/10 11:41:28;;;;;;;10.13;5.40;;;0.20;55.00;;;;;;5011571;28;20018;-78
2024/01/10 11:44:18;;;;;;;8.25;4.50;;;0.20;53.70;;;;;;5012187;28;20041;-80
2024/01/10 11:46:47;;;;;;;8.88;4.70;;;0.20;54.40;;;;;;5012204;28;20032;-77
2024/01/10 11:49:15;;;;;;;7.35;4.38;;;0.30;52.90;;;;;;5010613;28;20394;-77
2024/01/10 11:51:48;;;;;;;7.15;3.63;;;0.30;54.20;;;;;;5011249;28;20030;-78
2024/01/10 11:54:41;;;;;;;8.77;4.55;;;0.40;53.90;;;;;;5010939;28;20089;-79
2024/01/10 11:57:17;;;;;;;9.00;4.28;;;0.40;54.00;;;;;;5011944;28;20072;-79
2024/01/10 11:59:45;;;;;;;7.47;4.15;;;0.50;54.10;;;;;;5012941;28;20033;-78
2024/01/10 12:02:12;;;;;;;11.48;5.60;;;0.60;54.30;;;;;;5008136;28;20133;-76
2024/01/10 12:04:37;;;;;;;11.02;5.55;;;0.60;51.80;;;;;;5009953;28;20040;-79
2024/01/10 12:07:04;;;;;;;9.57;5.22;;;0.50;52.20;;;;;;5010869;28;20401;-80
2024/01/10 12:09:30;;;;;;;10.00;4.40;;;0.50;52.80;;;;;;5011867;28;20264;-80
2024/01/10 12:11:56;;;;;;;8.20;4.18;;;0.60;53.70;;;;;;5011305;28;20029;-76
2024/01/10 12:14:21;;;;;;;8.68;4.65;;;0.70;53.40;;;;;;5009824;28;20553;-80
2024/01/10 12:16:47;;;;;;;9.57;4.72;;;0.70;53.70;;;;;;5005272;28;20069;-80
2024/01/10 12:19:13;;;;;;;7.43;4.32;;;0.70;53.20;;;;;;5009679;28;20042;-79
2024/01/10 12:21:39;;;;;;;8.70;4.45;;;0.80;53.90;;;;;;5009238;28;20622;-78
2024/01/10 12:24:05;;;;;;;7.55;4.20;;;1.00;52.70;;;;;;5009204;28;20245;-76
2024/01/10 12:26:32;;;;;;;8.40;5.30;;;1.10;53.00;;;;;;5008603;28;20034;-79
2024/01/10 12:28:59;;;;;;;8.57;4.57;;;1.00;51.60;;;;;;5010579;28;20072;-78
2024/01/10 12:31:29;;;;;;;10.63;5.05;;;1.00;52.40;;;;;;5009801;28;20576;-76
2024/01/10 12:33:59;;;;;;;12.95;5.90;;;0.90;51.50;;;;;;5008611;28;20029;-76
2024/01/10 12:36:25;;;;;;;7.13;4.28;;;1.00;52.90;;;;;;5008699;28;20117;-76
2024/01/10 12:38:51;;;;;;;10.23;5.05;;;2.50;53.90;;;;;;5009767;28;20045;-79
2024/01/10 12:41:18;;;;;;;8.85;4.82;;;3.80;50.10;;;;;;5010982;28;20040;-79
2024/01/10 12:43:48;;;;;;;9.05;5.05;;;4.30;49.60;;;;;;5011169;28;20032;-79
2024/01/10 12:46:14;;;;;;;8.75;4.80;;;4.90;48.60;;;;;;5005438;28;20057;-80